Terminal Aerodrome Forecast
Issued by NWS

Home | Current Version | Previous Version | Text Only | Print | Product List | Glossary On
Versions: 1 2 3 4 5 6 7 8 9 10 11 12 13
000
FTUS43 KGRB 190520
TAFRHI
TAF
KRHI 190520Z 1906/2006 23005KT P6SM OVC050 WS020/23035KT
     FM190800 33003KT P6SM SCT015 OVC045
      TEMPO 1908/1912 BKN018
     FM191200 03008KT 5SM -FZDZSN BR OVC012
     FM191700 04010G16KT 3SM -SN BR OVC012
     FM200000 05009KT 6SM -FZRASN OVC015 WS020/11035KT=

USA.gov is the U.S. government's official web portal to all federal, state and local government web resources and services.